createdAt,value
2023-03-13T00:01:26.877Z,14.27
2023-03-13T00:03:55.766Z,11.38
2023-03-13T00:06:26.084Z,12.32
2023-03-13T00:08:54.521Z,11.30
2023-03-13T00:11:21.993Z,10.32
2023-03-13T00:13:49.496Z,13.15
2023-03-13T00:16:17.625Z,10.02
2023-03-13T00:21:17.454Z,9.65
2023-03-13T00:23:45.745Z,9.82
2023-03-13T00:26:18.890Z,10.63
2023-03-13T00:28:47.282Z,10.32
2023-03-13T00:31:24.232Z,11.40
2023-03-13T00:33:55.332Z,9.88
2023-03-13T00:36:25.566Z,11.80
2023-03-13T00:38:54.884Z,10.27
2023-03-13T00:41:25.241Z,11.20
2023-03-13T00:43:54.680Z,9.80
2023-03-13T00:46:24.788Z,9.80
2023-03-13T00:48:53.435Z,10.13
2023-03-13T00:53:49.270Z,10.43
2023-03-13T00:56:17.981Z,8.93
2023-03-13T00:58:47.052Z,10.68
2023-03-13T01:01:14.395Z,10.52
2023-03-13T01:03:43.543Z,9.00
2023-03-13T01:06:14.609Z,8.75
2023-03-13T01:08:42.334Z,9.45
2023-03-13T01:11:22.513Z,9.43
2023-03-13T01:13:50.856Z,7.88
2023-03-13T01:16:21.529Z,8.70
2023-03-13T01:18:51.822Z,8.43
2023-03-13T01:21:20.770Z,9.50
2023-03-13T01:23:49.613Z,8.63
2023-03-13T01:26:17.712Z,7.93
2023-03-13T01:28:45.978Z,7.05
2023-03-13T01:31:20.737Z,7.90
2023-03-13T01:33:50.865Z,7.35
2023-03-13T01:36:19.368Z,7.43
2023-03-13T01:38:52.251Z,6.75
2023-03-13T01:41:21.019Z,6.53
2023-03-13T01:43:48.579Z,7.07
2023-03-13T01:46:25.657Z,6.88
2023-03-13T01:49:22.093Z,7.40
2023-03-13T01:52:24.083Z,5.47
2023-03-13T01:55:16.472Z,7.78
2023-03-13T01:57:53.460Z,6.95
2023-03-13T02:00:32.615Z,8.27
2023-03-13T02:03:06.511Z,7.10
2023-03-13T02:05:35.668Z,5.93
2023-03-13T02:08:06.940Z,6.75
2023-03-13T02:10:42.279Z,7.65
2023-03-13T02:13:14.423Z,6.03
2023-03-13T02:15:42.921Z,6.93
2023-03-13T02:18:11.444Z,7.88
2023-03-13T02:20:40.832Z,11.32
2023-03-13T02:23:29.674Z,7.57
2023-03-13T02:25:57.408Z,6.75
2023-03-13T02:28:39.444Z,5.78
2023-03-13T02:31:11.884Z,6.60
2023-03-13T02:33:41.665Z,5.03
2023-03-13T02:36:12.792Z,6.65
2023-03-13T02:38:51.958Z,8.55
2023-03-13T02:41:22.056Z,5.22
2023-03-13T02:43:49.817Z,5.40
2023-03-13T02:46:20.808Z,6.38
2023-03-13T02:48:54.272Z,5.65
2023-03-13T02:51:43.811Z,5.47
2023-03-13T02:54:17.394Z,6.22
2023-03-13T02:56:48.536Z,5.82
2023-03-13T02:59:16.272Z,6.60
2023-03-13T03:01:46.107Z,10.13
2023-03-13T03:04:13.637Z,5.82
2023-03-13T03:06:41.178Z,5.93
2023-03-13T03:09:08.877Z,5.28
2023-03-13T03:11:38.928Z,7.00
2023-03-13T03:14:11.995Z,6.47
2023-03-13T03:16:44.314Z,6.60
2023-03-13T03:19:11.831Z,6.22
2023-03-13T03:21:40.282Z,9.15
2023-03-13T03:26:36.819Z,7.40
2023-03-13T03:29:11.319Z,6.28
2023-03-13T03:31:40.096Z,7.05
2023-03-13T03:34:07.607Z,6.50
2023-03-13T03:36:35.048Z,6.20
2023-03-13T03:39:02.469Z,6.18
2023-03-13T03:41:31.765Z,6.85
2023-03-13T03:43:59.860Z,6.53
2023-03-13T03:46:35.774Z,5.97
2023-03-13T03:49:03.584Z,5.95
2023-03-13T03:51:31.424Z,8.82
2023-03-13T03:53:58.901Z,6.53
2023-03-13T03:56:29.389Z,6.55
2023-03-13T03:58:58.616Z,5.90
2023-03-13T04:01:36.726Z,7.10
2023-03-13T04:04:05.261Z,5.95
2023-03-13T04:06:32.879Z,4.95
2023-03-13T04:09:01.431Z,5.63
2023-03-13T04:11:30.384Z,5.63
2023-03-13T04:13:58.121Z,5.97
2023-03-13T04:16:26.503Z,4.38
2023-03-13T04:18:55.484Z,4.55
2023-03-13T04:21:24.914Z,6.95
2023-03-13T04:24:09.873Z,4.43
2023-03-13T04:26:39.778Z,4.38
2023-03-13T04:32:01.984Z,4.00
2023-03-13T04:34:59.139Z,4.55
2023-03-13T04:37:52.444Z,4.57
2023-03-13T04:40:22.747Z,7.45
2023-03-13T04:43:01.292Z,4.85
2023-03-13T04:45:47.316Z,4.70
2023-03-13T04:48:27.011Z,4.45
2023-03-13T04:51:02.151Z,4.05
2023-03-13T04:54:02.459Z,3.03
2023-03-13T04:59:27.522Z,3.88
2023-03-13T05:02:39.031Z,3.10
2023-03-13T05:05:25.619Z,3.47
2023-03-13T05:08:19.393Z,4.28
2023-03-13T05:11:06.959Z,3.15
2023-03-13T05:14:05.196Z,3.45
2023-03-13T05:16:42.388Z,3.65
2023-03-13T05:19:30.852Z,3.78
2023-03-13T05:22:37.779Z,2.78
2023-03-13T05:25:43.326Z,2.95
2023-03-13T05:28:43.631Z,2.65
2023-03-13T05:31:35.408Z,3.00
2023-03-13T05:34:06.391Z,2.85
2023-03-13T05:39:42.045Z,2.85
2023-03-13T05:42:19.175Z,2.28
2023-03-13T05:44:58.310Z,3.28
2023-03-13T05:47:55.273Z,3.20
2023-03-13T05:51:01.014Z,2.88
2023-03-13T05:53:48.278Z,5.43
2023-03-13T05:56:31.286Z,5.47
2023-03-13T05:59:19.558Z,4.68
2023-03-13T06:02:09.831Z,9.95
2023-03-13T06:04:45.861Z,3.20
2023-03-13T06:07:19.606Z,3.05
2023-03-13T06:09:52.791Z,3.60
2023-03-13T06:12:39.055Z,4.18
2023-03-13T06:15:12.158Z,7.03
2023-03-13T06:18:04.795Z,5.47
2023-03-13T06:21:04.134Z,6.53
2023-03-13T06:23:35.196Z,5.70
2023-03-13T06:26:07.919Z,6.38
2023-03-13T06:29:03.132Z,5.85
2023-03-13T06:31:37.113Z,7.18
2023-03-13T06:34:20.054Z,6.30
2023-03-13T06:36:54.630Z,6.10
2023-03-13T06:39:37.755Z,7.80
2023-03-13T06:42:17.670Z,5.78
2023-03-13T06:44:52.381Z,6.82
2023-03-13T06:47:31.163Z,7.30
2023-03-13T06:49:59.422Z,5.05
2023-03-13T06:52:43.027Z,4.00
2023-03-13T06:55:20.179Z,6.20
2023-03-13T06:57:59.762Z,8.82
2023-03-13T07:00:29.155Z,7.20
2023-03-13T07:03:23.854Z,7.95
2023-03-13T07:06:01.559Z,5.82
2023-03-13T07:08:37.852Z,6.45
2023-03-13T07:11:13.762Z,6.03
2023-03-13T07:13:42.151Z,7.15
2023-03-13T07:16:19.931Z,9.05
2023-03-13T07:21:16.463Z,7.07
2023-03-13T07:23:47.131Z,9.23
2023-03-13T07:26:23.877Z,10.55
2023-03-13T07:28:52.388Z,5.43
2023-03-13T07:31:22.246Z,6.13
2023-03-13T07:33:53.076Z,7.00
2023-03-13T07:36:21.198Z,3.88
2023-03-13T07:38:51.278Z,7.00
2023-03-13T07:41:20.775Z,3.25
2023-03-13T07:43:51.863Z,3.63
2023-03-13T07:46:22.623Z,5.93
2023-03-13T07:48:53.393Z,6.82
2023-03-13T07:52:32.739Z,8.00
2023-03-13T07:55:03.439Z,7.95
2023-03-13T08:03:31.600Z,6.03
2023-03-13T08:09:00.703Z,9.88
2023-03-13T08:11:31.912Z,9.20
2023-03-13T08:13:59.915Z,6.45
2023-03-13T08:16:43.930Z,5.97
2023-03-13T08:19:18.523Z,6.28
2023-03-13T08:21:49.740Z,7.65
2023-03-13T08:24:22.195Z,6.15
2023-03-13T08:26:53.500Z,6.13
2023-03-13T08:29:35.433Z,5.40
2023-03-13T08:32:06.987Z,6.10
2023-03-13T08:34:41.509Z,3.95
2023-03-13T08:37:21.063Z,8.38
2023-03-13T08:39:56.814Z,5.80
2023-03-13T08:42:30.464Z,6.05
2023-03-13T08:45:17.561Z,9.80
2023-03-13T08:47:50.784Z,12.20
2023-03-13T08:50:22.688Z,5.88
2023-03-13T08:52:55.259Z,5.10
2023-03-13T08:55:37.636Z,5.22
2023-03-13T08:58:05.954Z,5.75
2023-03-13T09:00:36.517Z,3.67
2023-03-13T09:03:06.709Z,2.63
2023-03-13T09:05:55.177Z,4.63
2023-03-13T09:08:35.126Z,4.05
2023-03-13T09:11:11.009Z,3.85
2023-03-13T09:13:47.300Z,8.25
2023-03-13T09:16:25.749Z,3.40
2023-03-13T09:19:02.307Z,5.78
2023-03-13T09:21:32.883Z,2.20
2023-03-13T09:24:04.141Z,5.75
2023-03-13T09:26:32.536Z,2.72
2023-03-13T09:31:55.945Z,3.58
2023-03-13T09:34:54.448Z,4.43
2023-03-13T09:37:26.265Z,2.88
2023-03-13T09:39:59.353Z,3.75
2023-03-13T09:43:08.006Z,2.10
2023-03-13T09:45:45.261Z,3.40
2023-03-13T09:48:38.545Z,2.92
2023-03-13T09:51:54.112Z,2.97
2023-03-13T09:54:40.760Z,6.50
2023-03-13T09:57:18.960Z,3.90
2023-03-13T10:00:02.962Z,3.85
2023-03-13T10:02:37.994Z,2.42
2023-03-13T10:05:27.012Z,3.38
2023-03-13T10:08:13.232Z,3.33
2023-03-13T10:10:50.052Z,2.13
2023-03-13T10:13:30.022Z,5.70
2023-03-13T10:16:02.504Z,2.17
2023-03-13T10:18:31.427Z,4.40
2023-03-13T10:21:34.039Z,2.70
2023-03-13T10:24:12.140Z,2.85
2023-03-13T10:26:41.465Z,3.47
2023-03-13T10:29:32.393Z,1.83
2023-03-13T10:32:05.533Z,2.33
2023-03-13T10:34:54.404Z,3.78
2023-03-13T10:37:31.125Z,8.00
2023-03-13T10:40:24.342Z,5.47
2023-03-13T10:42:54.856Z,3.67
2023-03-13T10:45:27.242Z,3.92
2023-03-13T10:47:57.124Z,6.53
2023-03-13T10:50:27.510Z,5.40
2023-03-13T10:52:56.067Z,2.33
2023-03-13T10:58:02.923Z,3.58
2023-03-13T11:00:39.565Z,3.42
2023-03-13T11:03:19.055Z,3.97
2023-03-13T11:06:01.882Z,4.72
2023-03-13T11:08:35.595Z,9.23
2023-03-13T11:11:20.581Z,2.55
2023-03-13T11:14:17.429Z,5.68
2023-03-13T11:16:53.092Z,2.72
2023-03-13T11:19:41.820Z,4.72
2023-03-13T11:22:47.730Z,3.83
2023-03-13T11:26:04.389Z,4.30
2023-03-13T11:28:50.403Z,4.60
2023-03-13T11:31:39.878Z,6.07
2023-03-13T11:34:29.004Z,4.47
2023-03-13T11:37:02.748Z,5.80
2023-03-13T11:39:57.962Z,3.58
2023-03-13T11:42:32.726Z,2.25
2023-03-13T11:45:46.117Z,8.38
2023-03-13T11:48:36.840Z,3.70
2023-03-13T11:51:28.414Z,2.97
2023-03-13T11:54:24.456Z,4.10
2023-03-13T11:56:58.859Z,3.22
2023-03-13T12:02:29.561Z,2.10
2023-03-13T12:05:20.483Z,8.48
2023-03-13T12:08:03.917Z,1.83
2023-03-13T12:10:52.833Z,4.10
2023-03-13T12:13:33.060Z,3.53
2023-03-13T12:16:07.563Z,2.78
2023-03-13T12:18:44.404Z,5.43
2023-03-13T12:21:47.503Z,3.72
2023-03-13T12:24:46.648Z,6.22
2023-03-13T12:27:33.515Z,4.35
2023-03-13T12:30:07.718Z,5.28
2023-03-13T12:33:03.968Z,3.70
2023-03-13T12:35:35.809Z,3.35
2023-03-13T12:38:14.931Z,4.18
2023-03-13T12:41:06.202Z,2.53
2023-03-13T12:43:37.593Z,3.50
2023-03-13T12:46:11.684Z,4.15
2023-03-13T12:49:03.265Z,1.17
2023-03-13T12:52:15.981Z,4.70
2023-03-13T12:55:18.181Z,5.97
2023-03-13T12:58:04.830Z,3.10
2023-03-13T13:00:36.805Z,3.47
2023-03-13T13:03:32.476Z,4.38
2023-03-13T13:06:15.773Z,7.68
2023-03-13T13:09:08.695Z,8.80
2023-03-13T13:11:47.734Z,4.15
2023-03-13T13:14:18.580Z,3.47
2023-03-13T13:16:49.212Z,5.63
2023-03-13T13:19:25.859Z,4.90
2023-03-13T13:22:33.863Z,7.60
2023-03-13T13:25:02.230Z,6.60
2023-03-13T13:27:34.943Z,5.65
2023-03-13T13:30:55.736Z,10.63
2023-03-13T13:33:31.455Z,7.53
2023-03-13T13:36:13.443Z,6.20
2023-03-13T13:38:46.676Z,6.63
2023-03-13T13:41:14.513Z,4.70
2023-03-13T13:43:46.906Z,6.40
2023-03-13T13:46:47.654Z,6.15
2023-03-13T13:49:22.210Z,8.23
2023-03-13T13:52:05.095Z,8.25
2023-03-13T13:54:47.808Z,5.57
2023-03-13T13:57:41.500Z,9.10
2023-03-13T14:00:27.741Z,6.80
2023-03-13T14:02:57.699Z,4.53
2023-03-13T14:05:28.062Z,9.02
2023-03-13T14:08:14.533Z,5.50
2023-03-13T14:11:34.876Z,10.50
2023-03-13T14:14:19.116Z,6.53
2023-03-13T14:17:13.565Z,12.30
2023-03-13T14:19:43.546Z,7.15
2023-03-13T14:22:16.494Z,6.80
2023-03-13T14:24:57.982Z,8.20
2023-03-13T14:27:27.596Z,6.63
2023-03-13T14:30:09.544Z,7.90
2023-03-13T14:32:38.645Z,17.17
2023-03-13T14:35:08.592Z,9.35
2023-03-13T14:37:54.881Z,8.00
2023-03-13T14:40:28.072Z,8.27
2023-03-13T14:43:01.661Z,5.32
2023-03-13T14:45:35.246Z,4.43
2023-03-13T14:48:34.626Z,6.28
2023-03-13T14:51:15.641Z,4.07
2023-03-13T14:54:00.605Z,4.65
2023-03-13T14:56:42.469Z,3.97
2023-03-13T14:59:19.442Z,6.43
2023-03-13T15:01:47.374Z,5.95
2023-03-13T15:04:14.998Z,10.75
2023-03-13T15:06:42.662Z,9.75
2023-03-13T15:09:22.862Z,6.75
2023-03-13T15:11:55.153Z,7.80
2023-03-13T15:14:46.366Z,5.03
2023-03-13T15:17:24.207Z,8.25
2023-03-13T15:19:56.582Z,6.80
2023-03-13T15:22:33.046Z,6.82
2023-03-13T15:25:06.598Z,7.60
2023-03-13T15:27:35.220Z,5.85
2023-03-13T15:30:02.896Z,7.97
2023-03-13T15:32:38.907Z,7.53
2023-03-13T15:35:27.688Z,8.05
2023-03-13T15:37:57.094Z,9.02
2023-03-13T15:40:27.771Z,8.32
2023-03-13T15:42:56.272Z,8.38
2023-03-13T15:45:23.846Z,8.93
2023-03-13T15:47:51.448Z,13.80
2023-03-13T15:50:22.763Z,10.13
2023-03-13T15:52:50.406Z,5.72
2023-03-13T15:55:18.056Z,10.52
2023-03-13T15:57:49.454Z,10.27
2023-03-13T16:00:23.896Z,8.07
2023-03-13T16:02:52.185Z,10.77
2023-03-13T16:05:19.953Z,11.95
2023-03-13T16:07:50.377Z,8.73
2023-03-13T16:10:29.425Z,11.90
2023-03-13T16:12:57.069Z,9.00
2023-03-13T16:15:25.042Z,11.52
2023-03-13T16:17:52.572Z,9.25
2023-03-13T16:20:23.927Z,9.18
2023-03-13T16:22:53.586Z,11.52
2023-03-13T16:25:22.648Z,10.77
2023-03-13T16:27:50.402Z,11.20
2023-03-13T16:30:23.291Z,10.88
2023-03-13T16:32:51.085Z,17.15
2023-03-13T16:35:18.681Z,16.40
2023-03-13T16:37:46.467Z,11.52
2023-03-13T16:40:21.899Z,9.23
2023-03-13T16:42:49.444Z,9.40
2023-03-13T16:45:17.126Z,9.82
2023-03-13T16:47:45.724Z,9.38
2023-03-13T16:50:15.685Z,8.18
2023-03-13T16:52:43.249Z,9.05
2023-03-13T16:55:10.847Z,10.75
2023-03-13T16:57:38.460Z,9.70
2023-03-13T17:00:20.967Z,8.32
2023-03-13T17:02:49.166Z,6.72
2023-03-13T17:05:18.491Z,5.55
2023-03-13T17:07:48.244Z,7.78
2023-03-13T17:10:22.943Z,14.70
2023-03-13T17:12:51.193Z,6.78
2023-03-13T17:15:20.413Z,8.70
2023-03-13T17:17:52.262Z,6.55
2023-03-13T17:20:23.778Z,10.25
2023-03-13T17:22:51.666Z,11.98
2023-03-13T17:25:19.669Z,7.22
2023-03-13T17:27:48.717Z,9.32
2023-03-13T17:30:36.544Z,6.20
2023-03-13T17:33:04.130Z,6.55
2023-03-13T17:35:31.668Z,12.73
2023-03-13T17:37:59.125Z,8.55
2023-03-13T17:40:29.462Z,6.20
2023-03-13T17:42:57.956Z,8.30
2023-03-13T17:47:54.606Z,7.72
2023-03-13T17:50:24.726Z,4.95
2023-03-13T17:52:52.302Z,7.22
2023-03-13T17:55:19.989Z,7.72
2023-03-13T17:57:48.865Z,8.00
2023-03-13T18:00:32.182Z,10.00
2023-03-13T18:03:01.270Z,7.82
2023-03-13T18:05:29.115Z,7.60
2023-03-13T18:07:57.070Z,8.18
2023-03-13T18:10:27.496Z,6.68
2023-03-13T18:12:56.279Z,7.60
2023-03-13T18:15:26.032Z,5.85
2023-03-13T18:17:54.176Z,6.38
2023-03-13T18:20:25.276Z,7.13
2023-03-13T18:22:53.089Z,10.15
2023-03-13T18:25:20.720Z,5.00
2023-03-13T18:27:48.220Z,6.70
2023-03-13T18:30:19.362Z,5.60
2023-03-13T18:32:47.767Z,4.93
2023-03-13T18:40:18.241Z,6.00
2023-03-13T18:42:46.255Z,4.30
2023-03-13T18:45:20.015Z,4.65
2023-03-13T18:47:50.965Z,7.22
2023-03-13T18:50:31.188Z,6.55
2023-03-13T18:53:00.220Z,10.02
2023-03-13T18:55:30.431Z,5.88
2023-03-13T18:57:58.133Z,5.97
2023-03-13T19:00:28.584Z,4.63
2023-03-13T19:02:56.357Z,4.93
2023-03-13T19:05:24.615Z,8.77
2023-03-13T19:07:52.387Z,6.68
2023-03-13T19:10:26.240Z,3.22
2023-03-13T19:12:55.670Z,6.13
2023-03-13T19:15:26.279Z,6.10
2023-03-13T19:17:55.496Z,7.43
2023-03-13T19:20:23.982Z,5.03
2023-03-13T19:25:20.008Z,6.20
2023-03-13T19:27:48.790Z,3.80
2023-03-13T19:30:22.475Z,3.85
2023-03-13T19:32:50.735Z,4.55
2023-03-13T19:35:19.259Z,4.05
2023-03-13T19:40:23.489Z,3.88
2023-03-13T19:42:51.094Z,4.78
2023-03-13T19:45:20.633Z,5.82
2023-03-13T19:47:48.931Z,8.13
2023-03-13T19:50:20.126Z,7.40
2023-03-13T19:52:47.732Z,6.22
2023-03-13T19:55:15.744Z,4.00
2023-03-13T19:57:43.332Z,7.03
2023-03-13T20:00:25.057Z,5.50
2023-03-13T20:02:55.247Z,4.35
2023-03-13T20:05:24.142Z,9.27
2023-03-13T20:07:53.568Z,3.75
2023-03-13T20:10:22.072Z,3.80
2023-03-13T20:15:17.281Z,5.63
2023-03-13T20:17:45.011Z,4.47
2023-03-13T20:20:14.037Z,4.10
2023-03-13T20:22:42.025Z,6.78
2023-03-13T20:25:10.785Z,3.40
2023-03-13T20:27:39.772Z,5.07
2023-03-13T20:30:08.486Z,3.53
2023-03-13T20:35:13.254Z,4.22
2023-03-13T20:37:41.488Z,4.05
2023-03-13T20:40:13.318Z,7.38
2023-03-13T20:42:41.093Z,6.10
2023-03-13T20:45:09.924Z,5.45
2023-03-13T20:47:37.769Z,4.50
2023-03-13T20:50:05.520Z,6.47
2023-03-13T20:52:33.565Z,3.90
2023-03-13T20:55:01.092Z,4.65
2023-03-13T20:57:29.952Z,6.28
2023-03-13T20:59:58.108Z,4.53
2023-03-13T21:02:25.717Z,3.63
2023-03-13T21:04:53.363Z,6.60
2023-03-13T21:07:21.395Z,4.28
2023-03-13T21:09:48.919Z,6.03
2023-03-13T21:12:16.730Z,3.30
2023-03-13T21:14:44.479Z,4.07
2023-03-13T21:17:13.683Z,5.60
2023-03-13T21:19:41.210Z,8.55
2023-03-13T21:22:08.874Z,4.10
2023-03-13T21:24:36.619Z,5.97
2023-03-13T21:27:06.899Z,3.75
2023-03-13T21:29:34.616Z,3.38
2023-03-13T21:32:02.261Z,3.05
2023-03-13T21:34:29.957Z,5.25
2023-03-13T21:36:57.494Z,3.80
2023-03-13T21:39:25.011Z,5.55
2023-03-13T21:41:52.602Z,4.72
2023-03-13T21:44:20.252Z,4.65
2023-03-13T21:46:48.986Z,3.72
2023-03-13T21:49:16.550Z,4.30
2023-03-13T21:51:44.069Z,7.22
2023-03-13T21:54:11.656Z,5.03
2023-03-13T21:56:39.154Z,3.72
2023-03-13T21:59:06.718Z,5.07
2023-03-13T22:01:34.254Z,4.63
2023-03-13T22:04:01.811Z,6.22
2023-03-13T22:06:29.452Z,6.10
2023-03-13T22:08:56.954Z,6.03
2023-03-13T22:11:24.638Z,5.55
2023-03-13T22:13:52.867Z,5.38
2023-03-13T22:16:26.045Z,8.02
2023-03-13T22:18:56.111Z,4.57
2023-03-13T22:21:23.903Z,4.32
2023-03-13T22:23:51.423Z,3.97
2023-03-13T22:26:19.000Z,5.75
2023-03-13T22:28:46.787Z,5.43
2023-03-13T22:31:14.339Z,6.28
2023-03-13T22:33:41.995Z,6.45
2023-03-13T22:36:10.409Z,4.47
2023-03-13T22:38:40.590Z,3.88
2023-03-13T22:41:11.871Z,3.40
2023-03-13T22:43:40.101Z,3.22
2023-03-13T22:46:08.044Z,4.43
2023-03-13T22:48:37.060Z,4.03
2023-03-13T22:51:08.811Z,3.63
2023-03-13T22:53:39.567Z,3.47
2023-03-13T22:56:10.231Z,6.88
2023-03-13T22:58:38.818Z,3.13
2023-03-13T23:03:38.335Z,4.32
2023-03-13T23:06:09.456Z,6.28
2023-03-13T23:08:37.027Z,7.13
2023-03-13T23:11:05.400Z,6.55
2023-03-13T23:13:33.677Z,4.10
2023-03-13T23:16:01.313Z,4.13
2023-03-13T23:18:29.208Z,3.35
2023-03-13T23:20:56.765Z,5.65
2023-03-13T23:23:24.614Z,4.53
2023-03-13T23:25:52.174Z,4.88
2023-03-13T23:28:19.755Z,3.90
2023-03-13T23:30:47.391Z,4.93
2023-03-13T23:33:14.969Z,6.03
2023-03-13T23:35:44.177Z,6.57
2023-03-13T23:38:12.863Z,5.97
2023-03-13T23:40:40.523Z,4.72
2023-03-13T23:43:08.266Z,4.55
2023-03-13T23:45:36.965Z,4.43
2023-03-13T23:48:04.662Z,6.72
2023-03-13T23:50:32.343Z,4.93
2023-03-13T23:52:59.919Z,7.28
2023-03-13T23:55:27.558Z,6.47
2023-03-13T23:57:55.201Z,5.13
